sensor_id;sensor_type;location;lat;lon;timestamp;pressure;altitude;pressure_sealevel;temperature;humidity
61109;BME280;46995;55.740;37.402;2023-05-22T00:00:52;100164.75;;;10.05;81.46
61109;BME280;46995;55.740;37.402;2023-05-22T00:03:23;100150.84;;;10.03;80.82
61109;BME280;46995;55.740;37.402;2023-05-22T00:05:51;100174.84;;;10.24;80.77
61109;BME280;46995;55.740;37.402;2023-05-22T00:08:17;100176.69;;;10.35;80.54
61109;BME280;46995;55.740;37.402;2023-05-22T00:10:43;100170.94;;;10.41;80.17
61109;BME280;46995;55.740;37.402;2023-05-22T00:13:09;100151.00;;;10.37;79.86
61109;BME280;46995;55.740;37.402;2023-05-22T00:15:37;100169.31;;;10.51;80.11
61109;BME280;46995;55.740;37.402;2023-05-22T00:18:04;100158.09;;;10.47;79.89
61109;BME280;46995;55.740;37.402;2023-05-22T00:20:30;100164.25;;;10.59;79.88
61109;BME280;46995;55.740;37.402;2023-05-22T00:22:56;100158.00;;;10.49;79.63
61109;BME280;46995;55.740;37.402;2023-05-22T00:25:22;100166.41;;;10.54;79.56
61109;BME280;46995;55.740;37.402;2023-05-22T00:27:48;100169.34;;;10.62;79.48
61109;BME280;46995;55.740;37.402;2023-05-22T00:30:13;100161.50;;;10.60;79.13
61109;BME280;46995;55.740;37.402;2023-05-22T00:32:39;100170.78;;;10.66;79.30
61109;BME280;46995;55.740;37.402;2023-05-22T00:35:05;100187.34;;;10.79;79.25
61109;BME280;46995;55.740;37.402;2023-05-22T00:37:31;100195.78;;;10.84;79.23
61109;BME280;46995;55.740;37.402;2023-05-22T00:39:57;100186.03;;;10.85;78.96
61109;BME280;46995;55.740;37.402;2023-05-22T00:42:23;100169.47;;;10.72;79.30
61109;BME280;46995;55.740;37.402;2023-05-22T00:44:49;100179.78;;;10.75;79.17
61109;BME280;46995;55.740;37.402;2023-05-22T00:47:15;100165.69;;;10.63;79.38
61109;BME280;46995;55.740;37.402;2023-05-22T00:49:42;100175.44;;;10.62;79.63
61109;BME280;46995;55.740;37.402;2023-05-22T00:52:09;100183.34;;;10.62;79.94
61109;BME280;46995;55.740;37.402;2023-05-22T00:54:35;100178.41;;;10.58;79.93
61109;BME280;46995;55.740;37.402;2023-05-22T00:57:02;100161.38;;;10.51;80.06
61109;BME280;46995;55.740;37.402;2023-05-22T00:59:28;100177.13;;;10.63;79.87
61109;BME280;46995;55.740;37.402;2023-05-22T01:01:55;100186.38;;;10.69;79.87
61109;BME280;46995;55.740;37.402;2023-05-22T01:04:22;100175.59;;;10.72;79.86
61109;BME280;46995;55.740;37.402;2023-05-22T01:06:48;100156.84;;;10.64;79.91
61109;BME280;46995;55.740;37.402;2023-05-22T01:09:15;100172.81;;;10.74;79.93
61109;BME280;46995;55.740;37.402;2023-05-22T01:12:00;100180.63;;;10.75;80.21
61109;BME280;46995;55.740;37.402;2023-05-22T01:14:38;100184.47;;;10.71;79.90
61109;BME280;46995;55.740;37.402;2023-05-22T01:20:00;100171.47;;;10.68;80.13
61109;BME280;46995;55.740;37.402;2023-05-22T01:26:02;100166.91;;;10.59;80.67
61109;BME280;46995;55.740;37.402;2023-05-22T01:28:38;100168.56;;;10.49;80.63
61109;BME280;46995;55.740;37.402;2023-05-22T01:31:10;100149.44;;;10.34;81.22
61109;BME280;46995;55.740;37.402;2023-05-22T01:33:44;100176.22;;;10.41;81.46
61109;BME280;46995;55.740;37.402;2023-05-22T01:36:16;100173.59;;;10.41;81.31
61109;BME280;46995;55.740;37.402;2023-05-22T01:38:45;100164.19;;;10.37;81.17
61109;BME280;46995;55.740;37.402;2023-05-22T01:41:11;100150.03;;;10.38;81.35
61109;BME280;46995;55.740;37.402;2023-05-22T01:43:38;100161.00;;;10.44;81.32
61109;BME280;46995;55.740;37.402;2023-05-22T01:46:05;100161.13;;;10.54;81.27
61109;BME280;46995;55.740;37.402;2023-05-22T01:48:31;100159.34;;;10.54;81.12
61109;BME280;46995;55.740;37.402;2023-05-22T01:51:22;100166.56;;;10.63;81.26
61109;BME280;46995;55.740;37.402;2023-05-22T01:59:33;100155.44;;;10.82;80.59
61109;BME280;46995;55.740;37.402;2023-05-22T02:02:05;100163.84;;;10.87;80.25
61109;BME280;46995;55.740;37.402;2023-05-22T02:04:35;100170.47;;;10.93;80.11
61109;BME280;46995;55.740;37.402;2023-05-22T02:07:03;100172.84;;;10.96;80.21
61109;BME280;46995;55.740;37.402;2023-05-22T02:09:30;100170.94;;;10.98;80.01
61109;BME280;46995;55.740;37.402;2023-05-22T02:11:57;100154.72;;;10.91;80.02
61109;BME280;46995;55.740;37.402;2023-05-22T02:14:27;100148.47;;;10.81;80.08
61109;BME280;46995;55.740;37.402;2023-05-22T02:16:54;100162.03;;;10.77;80.48
61109;BME280;46995;55.740;37.402;2023-05-22T02:19:21;100145.19;;;10.67;80.67
61109;BME280;46995;55.740;37.402;2023-05-22T02:22:07;100156.84;;;10.64;80.84
61109;BME280;46995;55.740;37.402;2023-05-22T02:24:35;100160.78;;;10.58;81.30
61109;BME280;46995;55.740;37.402;2023-05-22T02:27:01;100170.63;;;10.56;81.52
61109;BME280;46995;55.740;37.402;2023-05-22T02:29:29;100170.84;;;10.53;81.75
61109;BME280;46995;55.740;37.402;2023-05-22T02:31:55;100143.31;;;10.34;81.68
61109;BME280;46995;55.740;37.402;2023-05-22T02:34:21;100169.66;;;10.46;81.83
61109;BME280;46995;55.740;37.402;2023-05-22T02:36:46;100149.66;;;10.31;82.27
61109;BME280;46995;55.740;37.402;2023-05-22T02:39:12;100163.38;;;10.36;82.21
61109;BME280;46995;55.740;37.402;2023-05-22T02:41:38;100159.63;;;10.28;82.24
61109;BME280;46995;55.740;37.402;2023-05-22T02:44:04;100169.97;;;10.31;82.65
61109;BME280;46995;55.740;37.402;2023-05-22T02:46:31;100169.31;;;10.27;82.46
61109;BME280;46995;55.740;37.402;2023-05-22T02:48:56;100169.22;;;10.29;82.62
61109;BME280;46995;55.740;37.402;2023-05-22T02:51:22;100184.59;;;10.35;82.54
61109;BME280;46995;55.740;37.402;2023-05-22T02:53:48;100187.94;;;10.37;82.63
61109;BME280;46995;55.740;37.402;2023-05-22T02:56:13;100182.69;;;10.37;82.54
61109;BME280;46995;55.740;37.402;2023-05-22T02:58:40;100185.72;;;10.43;82.47
61109;BME280;46995;55.740;37.402;2023-05-22T03:01:06;100187.88;;;10.49;82.44
61109;BME280;46995;55.740;37.402;2023-05-22T03:03:33;100182.50;;;10.51;82.07
61109;BME280;46995;55.740;37.402;2023-05-22T03:06:00;100185.41;;;10.59;81.85
61109;BME280;46995;55.740;37.402;2023-05-22T03:08:29;100199.94;;;10.65;82.16
61109;BME280;46995;55.740;37.402;2023-05-22T03:10:57;100173.13;;;10.58;82.17
61109;BME280;46995;55.740;37.402;2023-05-22T03:13:23;100201.75;;;10.75;81.70
61109;BME280;46995;55.740;37.402;2023-05-22T03:15:50;100208.03;;;10.85;81.66
61109;BME280;46995;55.740;37.402;2023-05-22T03:18:16;100181.84;;;10.82;81.41
61109;BME280;46995;55.740;37.402;2023-05-22T03:20:42;100178.84;;;10.87;81.30
61109;BME280;46995;55.740;37.402;2023-05-22T03:23:10;100156.63;;;10.89;81.14
61109;BME280;46995;55.740;37.402;2023-05-22T03:25:36;100195.72;;;11.19;80.80
61109;BME280;46995;55.740;37.402;2023-05-22T03:28:02;100178.75;;;11.22;80.62
61109;BME280;46995;55.740;37.402;2023-05-22T03:30:32;100171.06;;;11.30;80.30
61109;BME280;46995;55.740;37.402;2023-05-22T03:33:08;100162.41;;;11.39;79.97
61109;BME280;46995;55.740;37.402;2023-05-22T03:35:34;100188.56;;;11.64;78.86
61109;BME280;46995;55.740;37.402;2023-05-22T03:38:01;100173.44;;;11.66;78.98
61109;BME280;46995;55.740;37.402;2023-05-22T03:40:27;100173.31;;;11.79;78.28
61109;BME280;46995;55.740;37.402;2023-05-22T03:42:53;100188.56;;;11.98;78.48
61109;BME280;46995;55.740;37.402;2023-05-22T03:45:19;100173.72;;;12.06;78.05
61109;BME280;46995;55.740;37.402;2023-05-22T03:47:46;100182.66;;;12.26;77.51
61109;BME280;46995;55.740;37.402;2023-05-22T03:50:11;100187.66;;;12.40;77.02
61109;BME280;46995;55.740;37.402;2023-05-22T03:52:37;100169.59;;;12.45;76.88
61109;BME280;46995;55.740;37.402;2023-05-22T03:55:04;100178.00;;;12.71;75.63
61109;BME280;46995;55.740;37.402;2023-05-22T03:57:31;100183.00;;;12.95;74.70
61109;BME280;46995;55.740;37.402;2023-05-22T03:59:57;100181.81;;;13.08;72.70
61109;BME280;46995;55.740;37.402;2023-05-22T04:02:38;100167.53;;;13.21;72.26
61109;BME280;46995;55.740;37.402;2023-05-22T04:05:06;100170.09;;;13.32;71.75
61109;BME280;46995;55.740;37.402;2023-05-22T04:07:33;100187.31;;;13.47;71.47
61109;BME280;46995;55.740;37.402;2023-05-22T04:09:59;100170.03;;;13.52;71.25
61109;BME280;46995;55.740;37.402;2023-05-22T04:12:24;100166.53;;;13.52;70.96
61109;BME280;46995;55.740;37.402;2023-05-22T04:14:50;100162.50;;;13.57;70.55
61109;BME280;46995;55.740;37.402;2023-05-22T04:17:16;100186.41;;;13.77;70.10
61109;BME280;46995;55.740;37.402;2023-05-22T04:19:41;100186.59;;;13.85;69.48
61109;BME280;46995;55.740;37.402;2023-05-22T04:22:07;100194.69;;;13.93;68.59
61109;BME280;46995;55.740;37.402;2023-05-22T04:24:33;100175.69;;;13.88;68.11
61109;BME280;46995;55.740;37.402;2023-05-22T04:26:59;100184.38;;;13.99;68.40
61109;BME280;46995;55.740;37.402;2023-05-22T04:29:25;100183.69;;;14.07;67.91
61109;BME280;46995;55.740;37.402;2023-05-22T04:31:51;100184.38;;;14.09;67.66
61109;BME280;46995;55.740;37.402;2023-05-22T04:34:19;100194.63;;;14.23;67.68
61109;BME280;46995;55.740;37.402;2023-05-22T04:36:46;100185.81;;;14.23;67.30
61109;BME280;46995;55.740;37.402;2023-05-22T04:39:13;100192.94;;;14.22;67.32
61109;BME280;46995;55.740;37.402;2023-05-22T04:41:39;100164.81;;;14.00;67.49
61109;BME280;46995;55.740;37.402;2023-05-22T04:44:05;100198.38;;;14.02;67.91
61109;BME280;46995;55.740;37.402;2023-05-22T04:46:33;100204.78;;;13.99;68.20
61109;BME280;46995;55.740;37.402;2023-05-22T04:49:01;100180.13;;;13.78;68.41
61109;BME280;46995;55.740;37.402;2023-05-22T04:51:29;100172.56;;;13.64;68.66
61109;BME280;46995;55.740;37.402;2023-05-22T04:53:57;100193.69;;;13.75;69.01
61109;BME280;46995;55.740;37.402;2023-05-22T04:56:23;100201.97;;;13.81;69.41
61109;BME280;46995;55.740;37.402;2023-05-22T04:58:49;100177.16;;;13.62;69.45
61109;BME280;46995;55.740;37.402;2023-05-22T05:01:15;100177.88;;;13.64;69.94
61109;BME280;46995;55.740;37.402;2023-05-22T05:03:42;100181.81;;;13.69;70.39
61109;BME280;46995;55.740;37.402;2023-05-22T05:06:09;100193.25;;;13.70;70.34
61109;BME280;46995;55.740;37.402;2023-05-22T05:08:37;100198.03;;;13.76;70.64
61109;BME280;46995;55.740;37.402;2023-05-22T05:11:03;100188.63;;;13.72;71.20
61109;BME280;46995;55.740;37.402;2023-05-22T05:13:29;100189.06;;;13.67;71.40
61109;BME280;46995;55.740;37.402;2023-05-22T05:15:57;100208.38;;;13.79;72.44
61109;BME280;46995;55.740;37.402;2023-05-22T05:18:25;100200.53;;;13.77;72.02
61109;BME280;46995;55.740;37.402;2023-05-22T05:20:52;100208.81;;;13.84;72.49
61109;BME280;46995;55.740;37.402;2023-05-22T05:23:18;100189.34;;;13.74;72.99
61109;BME280;46995;55.740;37.402;2023-05-22T05:25:45;100174.69;;;13.70;73.99
61109;BME280;46995;55.740;37.402;2023-05-22T05:28:12;100179.28;;;13.68;75.14
61109;BME280;46995;55.740;37.402;2023-05-22T05:30:41;100180.13;;;13.68;76.03
61109;BME280;46995;55.740;37.402;2023-05-22T05:33:29;100167.78;;;13.57;76.42
61109;BME280;46995;55.740;37.402;2023-05-22T05:36:09;100153.53;;;13.49;76.74
61109;BME280;46995;55.740;37.402;2023-05-22T05:38:35;100159.63;;;13.40;77.27
61109;BME280;46995;55.740;37.402;2023-05-22T05:41:01;100176.97;;;13.44;78.20
61109;BME280;46995;55.740;37.402;2023-05-22T05:43:27;100171.06;;;13.31;78.60
61109;BME280;46995;55.740;37.402;2023-05-22T05:45:57;100177.31;;;13.30;78.72
61109;BME280;46995;55.740;37.402;2023-05-22T05:48:24;100178.03;;;13.32;78.96
61109;BME280;46995;55.740;37.402;2023-05-22T05:50:51;100211.59;;;13.42;79.59
61109;BME280;46995;55.740;37.402;2023-05-22T05:53:17;100217.75;;;13.43;79.63
61109;BME280;46995;55.740;37.402;2023-05-22T05:55:51;100224.88;;;13.42;79.99
61109;BME280;46995;55.740;37.402;2023-05-22T05:58:18;100229.22;;;13.43;80.11
61109;BME280;46995;55.740;37.402;2023-05-22T06:00:55;100223.91;;;13.43;80.23
61109;BME280;46995;55.740;37.402;2023-05-22T06:03:22;100229.91;;;13.45;80.54
61109;BME280;46995;55.740;37.402;2023-05-22T06:06:06;100227.25;;;13.45;80.62
61109;BME280;46995;55.740;37.402;2023-05-22T06:08:52;100231.34;;;13.49;80.72
61109;BME280;46995;55.740;37.402;2023-05-22T06:11:24;100221.41;;;13.51;80.86
61109;BME280;46995;55.740;37.402;2023-05-22T06:13:53;100220.97;;;13.46;81.00
61109;BME280;46995;55.740;37.402;2023-05-22T06:16:19;100197.09;;;13.46;81.06
61109;BME280;46995;55.740;37.402;2023-05-22T06:18:44;100223.53;;;13.57;81.10
61109;BME280;46995;55.740;37.402;2023-05-22T06:21:14;100220.16;;;13.55;81.26
61109;BME280;46995;55.740;37.402;2023-05-22T06:23:40;100229.28;;;13.63;81.27
61109;BME280;46995;55.740;37.402;2023-05-22T06:26:06;100228.88;;;13.67;81.40
61109;BME280;46995;55.740;37.402;2023-05-22T06:28:36;100219.66;;;13.71;81.26
61109;BME280;46995;55.740;37.402;2023-05-22T06:31:02;100216.63;;;13.76;81.14
61109;BME280;46995;55.740;37.402;2023-05-22T06:33:29;100218.69;;;13.82;81.32
61109;BME280;46995;55.740;37.402;2023-05-22T06:35:55;100214.66;;;13.87;81.38
61109;BME280;46995;55.740;37.402;2023-05-22T06:38:21;100207.53;;;13.88;81.18
61109;BME280;46995;55.740;37.402;2023-05-22T06:40:48;100196.50;;;13.92;81.04
61109;BME280;46995;55.740;37.402;2023-05-22T06:43:21;100207.03;;;14.13;81.14
61109;BME280;46995;55.740;37.402;2023-05-22T06:45:54;100203.97;;;14.27;80.49
61109;BME280;46995;55.740;37.402;2023-05-22T06:48:23;100211.56;;;14.41;80.14
61109;BME280;46995;55.740;37.402;2023-05-22T06:51:11;100205.13;;;14.54;79.98
61109;BME280;46995;55.740;37.402;2023-05-22T06:53:39;100195.59;;;14.61;79.60
61109;BME280;46995;55.740;37.402;2023-05-22T06:56:10;100204.25;;;14.72;79.60
61109;BME280;46995;55.740;37.402;2023-05-22T06:58:51;100205.94;;;14.83;79.36
61109;BME280;46995;55.740;37.402;2023-05-22T07:01:18;100215.44;;;14.95;79.20
61109;BME280;46995;55.740;37.402;2023-05-22T07:03:57;100214.19;;;14.90;79.11
61109;BME280;46995;55.740;37.402;2023-05-22T07:06:43;100220.19;;;14.82;79.15
61109;BME280;46995;55.740;37.402;2023-05-22T07:09:10;100206.38;;;14.69;79.51
61109;BME280;46995;55.740;37.402;2023-05-22T07:11:36;100190.28;;;14.61;79.92
61109;BME280;46995;55.740;37.402;2023-05-22T07:14:03;100189.44;;;14.51;79.93
61109;BME280;46995;55.740;37.402;2023-05-22T07:16:29;100208.22;;;14.59;80.50
61109;BME280;46995;55.740;37.402;2023-05-22T07:18:59;100198.25;;;14.61;80.26
61109;BME280;46995;55.740;37.402;2023-05-22T07:21:25;100209.31;;;14.66;80.51
61109;BME280;46995;55.740;37.402;2023-05-22T07:23:52;100229.47;;;14.59;80.19
61109;BME280;46995;55.740;37.402;2023-05-22T07:26:19;100247.91;;;14.51;80.43
61109;BME280;46995;55.740;37.402;2023-05-22T07:28:56;100239.53;;;14.55;80.67
61109;BME280;46995;55.740;37.402;2023-05-22T07:31:21;100217.44;;;14.55;80.96
61109;BME280;46995;55.740;37.402;2023-05-22T07:33:48;100199.53;;;14.57;81.10
61109;BME280;46995;55.740;37.402;2023-05-22T07:36:15;100212.41;;;14.52;80.95
61109;BME280;46995;55.740;37.402;2023-05-22T07:38:41;100214.38;;;14.50;80.93
61109;BME280;46995;55.740;37.402;2023-05-22T07:41:08;100187.38;;;14.54;81.35
61109;BME280;46995;55.740;37.402;2023-05-22T07:43:34;100187.50;;;14.53;81.17
61109;BME280;46995;55.740;37.402;2023-05-22T07:46:00;100221.63;;;14.57;81.14
61109;BME280;46995;55.740;37.402;2023-05-22T07:48:31;100244.03;;;14.55;81.17
61109;BME280;46995;55.740;37.402;2023-05-22T07:50:57;100243.88;;;14.56;81.47
61109;BME280;46995;55.740;37.402;2023-05-22T07:53:23;100217.44;;;14.55;81.94
61109;BME280;46995;55.740;37.402;2023-05-22T07:55:52;100224.41;;;14.56;81.70
61109;BME280;46995;55.740;37.402;2023-05-22T07:58:18;100226.53;;;14.62;81.75
61109;BME280;46995;55.740;37.402;2023-05-22T08:00:46;100229.75;;;14.65;81.33
61109;BME280;46995;55.740;37.402;2023-05-22T08:03:11;100214.34;;;14.69;81.38
61109;BME280;46995;55.740;37.402;2023-05-22T08:05:37;100221.88;;;14.83;81.14
61109;BME280;46995;55.740;37.402;2023-05-22T08:08:03;100227.59;;;14.98;81.03
61109;BME280;46995;55.740;37.402;2023-05-22T08:10:31;100225.63;;;15.09;80.80
61109;BME280;46995;55.740;37.402;2023-05-22T08:12:57;100217.53;;;15.01;80.23
61109;BME280;46995;55.740;37.402;2023-05-22T08:15:26;100255.41;;;15.13;80.42
61109;BME280;46995;55.740;37.402;2023-05-22T08:17:52;100257.13;;;15.04;80.39
61109;BME280;46995;55.740;37.402;2023-05-22T08:20:18;100241.75;;;14.89;80.41
61109;BME280;46995;55.740;37.402;2023-05-22T08:22:44;100248.75;;;14.90;80.64
61109;BME280;46995;55.740;37.402;2023-05-22T08:25:09;100265.53;;;15.00;80.83
61109;BME280;46995;55.740;37.402;2023-05-22T08:27:35;100239.06;;;14.98;80.55
61109;BME280;46995;55.740;37.402;2023-05-22T08:30:01;100250.94;;;15.13;80.50
61109;BME280;46995;55.740;37.402;2023-05-22T08:32:29;100248.41;;;15.21;79.97
61109;BME280;46995;55.740;37.402;2023-05-22T08:34:55;100221.81;;;15.21;79.93
61109;BME280;46995;55.740;37.402;2023-05-22T08:37:21;100246.09;;;15.46;79.52
61109;BME280;46995;55.740;37.402;2023-05-22T08:39:46;100222.81;;;15.57;79.28
61109;BME280;46995;55.740;37.402;2023-05-22T08:42:15;100212.63;;;15.80;78.94
61109;BME280;46995;55.740;37.402;2023-05-22T08:44:41;100226.91;;;16.06;78.43
61109;BME280;46995;55.740;37.402;2023-05-22T08:47:07;100205.72;;;16.05;78.04
61109;BME280;46995;55.740;37.402;2023-05-22T08:49:39;100196.09;;;16.22;77.46
61109;BME280;46995;55.740;37.402;2023-05-22T08:52:13;100217.69;;;16.54;76.91
61109;BME280;46995;55.740;37.402;2023-05-22T08:54:46;100220.53;;;16.70;75.96
61109;BME280;46995;55.740;37.402;2023-05-22T08:57:14;100225.16;;;16.86;75.87
61109;BME280;46995;55.740;37.402;2023-05-22T08:59:40;100199.69;;;16.91;75.24
61109;BME280;46995;55.740;37.402;2023-05-22T09:02:07;100214.22;;;17.23;74.73
61109;BME280;46995;55.740;37.402;2023-05-22T09:04:34;100196.03;;;17.18;74.18
61109;BME280;46995;55.740;37.402;2023-05-22T09:06:59;100204.19;;;17.17;74.03
61109;BME280;46995;55.740;37.402;2023-05-22T09:09:31;100203.50;;;17.15;74.05
61109;BME280;46995;55.740;37.402;2023-05-22T09:12:00;100215.88;;;17.16;74.38
61109;BME280;46995;55.740;37.402;2023-05-22T09:14:26;100215.19;;;17.14;74.65
61109;BME280;46995;55.740;37.402;2023-05-22T09:16:52;100207.19;;;17.14;74.09
61109;BME280;46995;55.740;37.402;2023-05-22T09:19:21;100212.19;;;17.17;74.16
61109;BME280;46995;55.740;37.402;2023-05-22T09:21:47;100212.03;;;17.18;74.36
61109;BME280;46995;55.740;37.402;2023-05-22T09:24:12;100190.47;;;17.12;74.50
61109;BME280;46995;55.740;37.402;2023-05-22T09:26:39;100203.63;;;17.31;74.07
61109;BME280;46995;55.740;37.402;2023-05-22T09:29:05;100212.22;;;17.51;73.77
61109;BME280;46995;55.740;37.402;2023-05-22T09:31:41;100192.72;;;17.58;73.42
61109;BME280;46995;55.740;37.402;2023-05-22T09:34:08;100210.13;;;17.62;72.83
61109;BME280;46995;55.740;37.402;2023-05-22T09:36:35;100205.31;;;17.66;72.99
61109;BME280;46995;55.740;37.402;2023-05-22T09:39:02;100192.50;;;17.77;72.75
61109;BME280;46995;55.740;37.402;2023-05-22T09:41:29;100191.22;;;17.90;72.52
61109;BME280;46995;55.740;37.402;2023-05-22T09:43:57;100196.56;;;18.06;72.59
61109;BME280;46995;55.740;37.402;2023-05-22T09:46:23;100213.66;;;18.21;71.66
61109;BME280;46995;55.740;37.402;2023-05-22T09:48:53;100217.50;;;18.27;70.94
61109;BME280;46995;55.740;37.402;2023-05-22T09:51:22;100209.31;;;18.20;70.59
61109;BME280;46995;55.740;37.402;2023-05-22T09:57:09;100203.97;;;18.20;71.05
61109;BME280;46995;55.740;37.402;2023-05-22T09:59:39;100193.28;;;18.20;70.77
61109;BME280;46995;55.740;37.402;2023-05-22T10:02:07;100199.63;;;18.27;70.89
61109;BME280;46995;55.740;37.402;2023-05-22T10:04:35;100183.22;;;18.22;70.63
61109;BME280;46995;55.740;37.402;2023-05-22T10:07:02;100200.81;;;18.25;71.14
61109;BME280;46995;55.740;37.402;2023-05-22T10:09:30;100194.13;;;18.20;70.72
61109;BME280;46995;55.740;37.402;2023-05-22T10:12:04;100191.94;;;18.32;70.88
61109;BME280;46995;55.740;37.402;2023-05-22T10:14:36;100164.19;;;18.25;70.45
61109;BME280;46995;55.740;37.402;2023-05-22T10:17:02;100177.25;;;18.44;70.31
61109;BME280;46995;55.740;37.402;2023-05-22T10:19:31;100172.72;;;18.53;69.62
61109;BME280;46995;55.740;37.402;2023-05-22T10:21:59;100185.13;;;18.70;69.42
61109;BME280;46995;55.740;37.402;2023-05-22T10:24:25;100176.94;;;18.72;69.63
61109;BME280;46995;55.740;37.402;2023-05-22T10:26:52;100163.88;;;18.77;69.47
61109;BME280;46995;55.740;37.402;2023-05-22T10:29:23;100182.78;;;18.99;68.92
61109;BME280;46995;55.740;37.402;2023-05-22T10:31:59;100167.91;;;18.73;67.38
61109;BME280;46995;55.740;37.402;2023-05-22T10:40:09;100185.13;;;18.94;68.93
61109;BME280;46995;55.740;37.402;2023-05-22T10:42:36;100182.56;;;19.01;68.86
61109;BME280;46995;55.740;37.402;2023-05-22T10:45:05;100164.50;;;19.03;68.22
61109;BME280;46995;55.740;37.402;2023-05-22T10:47:35;100159.66;;;19.07;67.98
61109;BME280;46995;55.740;37.402;2023-05-22T10:50:11;100166.78;;;19.22;67.33
61109;BME280;46995;55.740;37.402;2023-05-22T10:52:37;100160.78;;;19.20;67.22
61109;BME280;46995;55.740;37.402;2023-05-22T10:55:08;100173.09;;;19.37;66.83
61109;BME280;46995;55.740;37.402;2023-05-22T10:57:38;100140.34;;;19.27;67.40
61109;BME280;46995;55.740;37.402;2023-05-22T11:02:41;100166.75;;;19.47;66.78
61109;BME280;46995;55.740;37.402;2023-05-22T11:07:46;100154.16;;;19.55;66.43
61109;BME280;46995;55.740;37.402;2023-05-22T11:10:24;100154.25;;;19.70;66.38
61109;BME280;46995;55.740;37.402;2023-05-22T11:13:01;100145.50;;;19.76;65.54
61109;BME280;46995;55.740;37.402;2023-05-22T11:15:30;100151.47;;;19.86;65.68
61109;BME280;46995;55.740;37.402;2023-05-22T11:18:07;100118.56;;;19.69;65.89
61109;BME280;46995;55.740;37.402;2023-05-22T11:20:36;100108.38;;;19.65;65.65
61109;BME280;46995;55.740;37.402;2023-05-22T11:23:07;100109.06;;;19.67;65.98
61109;BME280;46995;55.740;37.402;2023-05-22T11:25:36;100110.28;;;19.79;65.88
61109;BME280;46995;55.740;37.402;2023-05-22T11:28:08;100110.41;;;19.94;64.70
61109;BME280;46995;55.740;37.402;2023-05-22T11:30:39;100120.97;;;20.10;64.74
61109;BME280;46995;55.740;37.402;2023-05-22T11:33:09;100113.91;;;20.17;64.41
61109;BME280;46995;55.740;37.402;2023-05-22T11:36:08;100124.56;;;20.25;64.19
61109;BME280;46995;55.740;37.402;2023-05-22T11:42:23;100054.78;;;20.10;63.18
61109;BME280;46995;55.740;37.402;2023-05-22T11:49:53;100135.53;;;20.61;62.72
61109;BME280;46995;55.740;37.402;2023-05-22T11:52:34;100041.81;;;19.99;62.51
61109;BME280;46995;55.740;37.402;2023-05-22T11:55:03;100076.75;;;20.28;61.94
61109;BME280;46995;55.740;37.402;2023-05-22T11:58:21;100051.88;;;20.20;62.18
61109;BME280;46995;55.740;37.402;2023-05-22T12:00:51;100121.69;;;20.72;62.10
61109;BME280;46995;55.740;37.402;2023-05-22T12:03:17;100049.59;;;20.32;61.99
61109;BME280;46995;55.740;37.402;2023-05-22T12:05:47;100091.19;;;20.65;61.41
61109;BME280;46995;55.740;37.402;2023-05-22T12:08:17;100079.28;;;20.82;61.21
61109;BME280;46995;55.740;37.402;2023-05-22T12:10:48;100123.22;;;21.19;60.32
61109;BME280;46995;55.740;37.402;2023-05-22T12:13:14;100111.41;;;21.05;60.63
61109;BME280;46995;55.740;37.402;2023-05-22T12:15:40;100109.97;;;21.17;60.70
61109;BME280;46995;55.740;37.402;2023-05-22T12:18:08;100106.97;;;21.77;59.08
61109;BME280;46995;55.740;37.402;2023-05-22T12:20:34;100095.50;;;22.75;57.03
61109;BME280;46995;55.740;37.402;2023-05-22T12:23:01;100094.88;;;23.48;55.02
61109;BME280;46995;55.740;37.402;2023-05-22T12:25:34;100091.06;;;23.84;53.24
61109;BME280;46995;55.740;37.402;2023-05-22T12:28:00;100086.06;;;23.81;54.10
61109;BME280;46995;55.740;37.402;2023-05-22T12:30:26;100095.47;;;24.11;53.50
61109;BME280;46995;55.740;37.402;2023-05-22T12:32:51;100066.63;;;24.58;52.50
61109;BME280;46995;55.740;37.402;2023-05-22T12:35:17;100075.66;;;25.22;50.97
61109;BME280;46995;55.740;37.402;2023-05-22T12:37:47;100057.00;;;25.59;48.62
61109;BME280;46995;55.740;37.402;2023-05-22T12:40:13;100081.63;;;26.13;48.28
61109;BME280;46995;55.740;37.402;2023-05-22T12:42:39;100062.94;;;26.37;47.58
61109;BME280;46995;55.740;37.402;2023-05-22T12:45:06;100071.72;;;26.57;47.13
61109;BME280;46995;55.740;37.402;2023-05-22T12:47:31;100071.72;;;26.75;46.71
61109;BME280;46995;55.740;37.402;2023-05-22T12:49:57;100057.13;;;26.76;46.86
61109;BME280;46995;55.740;37.402;2023-05-22T12:52:23;100056.03;;;26.84;46.20
61109;BME280;46995;55.740;37.402;2023-05-22T12:54:49;100063.72;;;26.87;46.56
61109;BME280;46995;55.740;37.402;2023-05-22T12:57:15;100042.41;;;26.90;46.08
61109;BME280;46995;55.740;37.402;2023-05-22T12:59:43;100044.72;;;26.69;46.50
61109;BME280;46995;55.740;37.402;2023-05-22T13:02:09;100060.78;;;26.45;47.35
61109;BME280;46995;55.740;37.402;2023-05-22T13:04:35;100053.00;;;25.99;48.07
61109;BME280;46995;55.740;37.402;2023-05-22T13:07:01;100051.00;;;25.44;49.29
61109;BME280;46995;55.740;37.402;2023-05-22T13:09:27;100048.31;;;24.79;50.72
61109;BME280;46995;55.740;37.402;2023-05-22T13:11:53;100051.06;;;24.27;51.96
61109;BME280;46995;55.740;37.402;2023-05-22T13:14:19;100052.47;;;24.03;52.79
61109;BME280;46995;55.740;37.402;2023-05-22T13:16:45;100041.09;;;23.40;53.59
61109;BME280;46995;55.740;37.402;2023-05-22T13:19:11;100031.59;;;22.97;54.65
61109;BME280;46995;55.740;37.402;2023-05-22T13:21:37;100045.50;;;22.66;56.10